Caribe Rosa — D5MR2 — position and weather

sailwx.info

Track history (hours):
 
Tides and Currents Weather Stations Pressure Air Temp Water Temp Dewpoint Dewpoint Depression Visibility Wind Speed Wind Dir Waves Ship Positions

Caribe Rosa

Last reported at 2018-Jun-18 21:13 UTC. Time now 2018-Jun-19 17:56 UTC.
Position N 29°44' W 095°03'.

Length 118 m; draft 9.2 m.

Type: Ship (hazmat cat A). MMSI: 636017776.

Date/timePositionNaut miles runAvg speedWind from/ knotsBaromVisibWave heightAir tempDewpointWater temp
2018-Jun-18 21:13N 29°44' W 095°03'2 7.3
2018-Jun-18 20:56N 29°42' W 095°01'4 9.3
2018-Jun-18 20:29N 29°39' W 094°58'510.6
2018-Jun-18 20:00N 29°34' W 094°56'510.8
2018-Jun-18 19:30N 29°30' W 094°52'511.0
2018-Jun-18 19:00N 29°25' W 094°49'4 8.9
2018-Jun-18 18:31N 29°21' W 094°47'0 0.1
2018-Jun-18 17:56N 29°21' W 094°47'0 0.0
2018-Jun-18 17:29N 29°21' W 094°47'0 0.0
2018-Jun-18 16:59N 29°21' W 094°47'0 0.0
2018-Jun-18 16:29N 29°21' W 094°47'0 0.0
2018-Jun-18 15:59N 29°21' W 094°47'0 0.0
2018-Jun-18 15:29N 29°21' W 094°47'0 0.0
2018-Jun-18 14:59N 29°21' W 094°47'0 0.0
2018-Jun-18 14:29N 29°21' W 094°47'0 0.0
2018-Jun-18 13:59N 29°21' W 094°47'0 0.0
2018-Jun-18 13:29N 29°21' W 094°47'0 0.0
2018-Jun-18 12:59N 29°21' W 094°47'0 0.0
2018-Jun-18 12:29N 29°21' W 094°47'0 0.0
2018-Jun-18 11:44N 29°21' W 094°47'0 0.3
2018-Jun-18 11:23N 29°21' W 094°47'0 0.1
2018-Jun-18 10:59N 29°21' W 094°47'0 0.1
2018-Jun-18 10:26N 29°21' W 094°47'0 0.0
2018-Jun-18 09:59N 29°21' W 094°47'0 0.0
2018-Jun-18 09:26N 29°21' W 094°47'0 0.0
2018-Jun-18 08:59N 29°21' W 094°47'0 0.0
2018-Jun-18 08:26N 29°21' W 094°47'0 0.0
2018-Jun-18 07:56N 29°21' W 094°47'0 0.0
2018-Jun-18 07:29N 29°21' W 094°47'0 0.0
2018-Jun-18 06:59N 29°21' W 094°47'0 0.0
2018-Jun-18 06:29N 29°21' W 094°47'0 0.0
2018-Jun-18 05:59N 29°21' W 094°47'0 0.0
2018-Jun-18 05:29N 29°21' W 094°47'0 0.1
2018-Jun-18 04:59N 29°21' W 094°47'0 0.2
2018-Jun-18 04:29N 29°21' W 094°47'0 0.2
2018-Jun-18 03:59N 29°21' W 094°47'0 0.1
2018-Jun-18 03:29N 29°21' W 094°47'0 0.1
2018-Jun-18 02:59N 29°21' W 094°47'0 0.0
2018-Jun-18 02:29N 29°21' W 094°47'0 0.0
2018-Jun-18 01:59N 29°21' W 094°47'0 0.0
2018-Jun-18 01:29N 29°21' W 094°47'0 0.0
2018-Jun-18 00:59N 29°21' W 094°47'0 0.0
2018-Jun-18 00:29N 29°21' W 094°47'0 0.0
2018-Jun-17 23:59N 29°21' W 094°47'0 0.0
2018-Jun-17 23:29N 29°21' W 094°47'0 0.0
2018-Jun-17 22:59N 29°21' W 094°47'0 0.0
2018-Jun-17 22:29N 29°21' W 094°47'0 0.0
2018-Jun-17 21:59N 29°21' W 094°47'0 0.0
2018-Jun-17 21:29N 29°21' W 094°47'0 0.0
2018-Jun-17 20:59N 29°21' W 094°47'0 0.0
2018-Jun-17 20:29N 29°21' W 094°47'0 0.0
2018-Jun-17 19:59N 29°21' W 094°47'0 0.0
2018-Jun-17 19:26N 29°21' W 094°47'0 0.0
2018-Jun-17 18:59N 29°21' W 094°47'0 0.0
2018-Jun-17 18:29N 29°21' W 094°47'0 0.0
2018-Jun-17 17:59N 29°21' W 094°47'0 0.0
2018-Jun-17 17:29N 29°21' W 094°47'0 0.0
2018-Jun-17 16:59N 29°21' W 094°47'0 0.0
2018-Jun-17 16:29N 29°21' W 094°47'0 0.0
2018-Jun-17 15:58N 29°21' W 094°47'0 0.0
2018-Jun-17 15:28N 29°21' W 094°47'0 0.0
2018-Jun-17 14:55N 29°21' W 094°47'0 0.0
2018-Jun-17 14:28N 29°21' W 094°47'0 0.0
2018-Jun-17 13:52N 29°21' W 094°47'0 0.0
2018-Jun-17 13:28N 29°21' W 094°47'13 2.6
2018-Jun-17 08:31N 29°33' W 094°54'011.5
2018-Jun-17 08:30N 29°33' W 094°54'510.2
2018-Jun-17 08:00N 29°37' W 094°57'5 9.9
2018-Jun-17 07:28N 29°42' W 094°60'1 0.0
2018-Jun-16 09:11N 29°42' W 095°01'210.6
2018-Jun-16 08:59N 29°41' W 094°59'511.3
2018-Jun-16 08:30N 29°36' W 094°57'611.8
2018-Jun-16 07:59N 29°31' W 094°53'511.2
2018-Jun-16 07:30N 29°26' W 094°50'510.5
2018-Jun-16 07:00N 29°21' W 094°47'510.3
2018-Jun-16 06:30N 29°20' W 094°42'611.2
2018-Jun-16 05:58N 29°18' W 094°35'3 6.9
2018-Jun-16 05:28N 29°16' W 094°32'  
2018-Jun-10 21:46N 19°11' W 095°41'310.0
2018-Jun-10 21:30N 19°12' W 095°43'510.0
2018-Jun-10 21:00N 19°12' W 095°49'610.3
2018-Jun-10 20:23N 19°12' W 095°55'410.5
2018-Jun-10 20:00N 19°11' W 095°60'5 9.9
2018-Jun-10 19:30N 19°12' W 096°05'3 6.4
2018-Jun-10 18:58N 19°13' W 096°08'0 0.0
2018-Jun-10 18:25N 19°13' W 096°08'0 0.0
2018-Jun-10 17:58N 19°13' W 096°08'0 0.0
2018-Jun-10 17:22N 19°13' W 096°08'0 0.0
2018-Jun-10 16:58N 19°13' W 096°08'0 0.0
2018-Jun-10 16:28N 19°13' W 096°08'0 0.0
2018-Jun-10 15:58N 19°13' W 096°08'0 0.0
2018-Jun-10 15:28N 19°13' W 096°08'0 0.0
2018-Jun-10 14:58N 19°13' W 096°08'0 0.0
2018-Jun-10 13:58N 19°13' W 096°08'0 0.0
2018-Jun-10 13:28N 19°13' W 096°08'0 0.0
2018-Jun-10 12:58N 19°13' W 096°08'0 0.0
2018-Jun-10 12:28N 19°13' W 096°08'0 0.0
2018-Jun-10 11:58N 19°13' W 096°08'0 0.0
2018-Jun-10 11:28N 19°13' W 096°08'0 0.0
2018-Jun-10 10:58N 19°13' W 096°08'0 0.0
2018-Jun-10 10:28N 19°13' W 096°08'0 0.0
2018-Jun-10 09:52N 19°13' W 096°08'0 0.0
2018-Jun-10 09:28N 19°13' W 096°08'0 0.0
2018-Jun-10 08:58N 19°13' W 096°08'0 0.0
2018-Jun-10 08:10N 19°13' W 096°08'0 0.0
2018-Jun-10 07:58N 19°13' W 096°08'0 0.0
2018-Jun-10 07:28N 19°13' W 096°08'0 0.0
2018-Jun-10 06:58N 19°13' W 096°08'0 0.0
2018-Jun-10 06:28N 19°13' W 096°08'0 0.0
2018-Jun-10 05:58N 19°13' W 096°08'0 0.0
2018-Jun-10 05:28N 19°13' W 096°08'0 0.0
2018-Jun-10 04:52N 19°13' W 096°08'0 0.0
2018-Jun-10 04:28N 19°13' W 096°08'0 0.0
2018-Jun-10 03:52N 19°13' W 096°08'0 0.0
2018-Jun-10 03:22N 19°13' W 096°08'0 0.0
2018-Jun-10 02:58N 19°13' W 096°08'0 0.0
2018-Jun-10 02:19N 19°13' W 096°08'0 0.0
2018-Jun-10 01:55N 19°13' W 096°08'0 0.0
2018-Jun-10 01:28N 19°13' W 096°08'0 0.0
2018-Jun-10 00:55N 19°13' W 096°08'0 0.0
2018-Jun-10 00:28N 19°13' W 096°08'0 0.0
2018-Jun-09 23:58N 19°13' W 096°08'0 0.0
2018-Jun-09 23:28N 19°13' W 096°08'0 0.0
2018-Jun-09 22:55N 19°13' W 096°08'0 0.0
2018-Jun-09 22:28N 19°13' W 096°08'0 0.0
2018-Jun-09 21:58N 19°13' W 096°08'0 0.0
2018-Jun-09 21:28N 19°13' W 096°08'0 0.0
2018-Jun-09 20:58N 19°13' W 096°08'0 0.0
2018-Jun-09 20:28N 19°13' W 096°08'0 0.0
2018-Jun-09 19:58N 19°13' W 096°08'0 0.0
2018-Jun-09 19:28N 19°13' W 096°08'0 0.0
2018-Jun-09 18:52N 19°13' W 096°08'0 0.0
2018-Jun-09 18:28N 19°13' W 096°08'0 0.0
2018-Jun-09 17:58N 19°13' W 096°08'0 0.0
2018-Jun-09 17:28N 19°13' W 096°08'0 0.0
2018-Jun-09 16:58N 19°13' W 096°08'0 0.0
2018-Jun-09 16:28N 19°13' W 096°08'0 0.0
2018-Jun-09 15:58N 19°13' W 096°08'0 0.0
2018-Jun-09 14:58N 19°13' W 096°08'0 0.0
2018-Jun-09 14:22N 19°13' W 096°08'0 0.0
2018-Jun-09 13:58N 19°13' W 096°08'0 0.0
2018-Jun-09 13:28N 19°13' W 096°08'0 0.0
2018-Jun-09 12:58N 19°13' W 096°08'0 0.0
2018-Jun-09 12:28N 19°13' W 096°08'0 0.1
2018-Jun-09 11:58N 19°13' W 096°08'0 0.0
2018-Jun-09 11:28N 19°13' W 096°08'0 0.0
2018-Jun-09 10:58N 19°13' W 096°08'0 0.0
2018-Jun-09 10:28N 19°13' W 096°08'0 0.0
2018-Jun-09 09:58N 19°13' W 096°08'0 0.0
2018-Jun-09 09:28N 19°13' W 096°08'0 0.0
2018-Jun-09 08:58N 19°13' W 096°08'0 0.0
2018-Jun-09 08:28N 19°13' W 096°08'0 0.0
2018-Jun-09 07:58N 19°13' W 096°08'1 2.1
2018-Jun-09 07:30N 19°12' W 096°07'4 7.8
2018-Jun-09 07:00N 19°12' W 096°03'4 7.5
2018-Jun-09 06:30N 19°14' W 096°00'510.7
2018-Jun-09 06:00N 19°19' W 096°00'510.6
2018-Jun-09 05:30N 19°25' W 095°60'611.4
2018-Jun-09 05:00N 19°29' W 095°57'  
Track history (hours):
 
Tides and Currents Weather Stations Pressure Air Temp Water Temp Dewpoint Dewpoint Depression Visibility Wind Speed Wind Dir Waves Ship Positions

Caribe Rosa

Last reported at 2018-Jun-18 21:13 UTC. Time now 2018-Jun-19 17:56 UTC.
Position N 29°44' W 095°03'.

Length 118 m; draft 9.2 m.

Type: Ship (hazmat cat A). MMSI: 636017776.

Date/timePositionNaut miles runAvg speedWind from/ knotsBaromVisibWave heightAir tempDewpointWater temp
2018-Jun-18 21:13N 29°44' W 095°03'2 7.3
2018-Jun-18 20:56N 29°42' W 095°01'4 9.3
2018-Jun-18 20:29N 29°39' W 094°58'510.6
2018-Jun-18 20:00N 29°34' W 094°56'510.8
2018-Jun-18 19:30N 29°30' W 094°52'511.0
2018-Jun-18 19:00N 29°25' W 094°49'4 8.9
2018-Jun-18 18:31N 29°21' W 094°47'0 0.1
2018-Jun-18 17:56N 29°21' W 094°47'0 0.0
2018-Jun-18 17:29N 29°21' W 094°47'0 0.0
2018-Jun-18 16:59N 29°21' W 094°47'0 0.0
2018-Jun-18 16:29N 29°21' W 094°47'0 0.0
2018-Jun-18 15:59N 29°21' W 094°47'0 0.0
2018-Jun-18 15:29N 29°21' W 094°47'0 0.0
2018-Jun-18 14:59N 29°21' W 094°47'0 0.0
2018-Jun-18 14:29N 29°21' W 094°47'0 0.0
2018-Jun-18 13:59N 29°21' W 094°47'0 0.0
2018-Jun-18 13:29N 29°21' W 094°47'0 0.0
2018-Jun-18 12:59N 29°21' W 094°47'0 0.0
2018-Jun-18 12:29N 29°21' W 094°47'0 0.0
2018-Jun-18 11:44N 29°21' W 094°47'0 0.3
2018-Jun-18 11:23N 29°21' W 094°47'0 0.1
2018-Jun-18 10:59N 29°21' W 094°47'0 0.1
2018-Jun-18 10:26N 29°21' W 094°47'0 0.0
2018-Jun-18 09:59N 29°21' W 094°47'0 0.0
2018-Jun-18 09:26N 29°21' W 094°47'0 0.0
2018-Jun-18 08:59N 29°21' W 094°47'0 0.0
2018-Jun-18 08:26N 29°21' W 094°47'0 0.0
2018-Jun-18 07:56N 29°21' W 094°47'0 0.0
2018-Jun-18 07:29N 29°21' W 094°47'0 0.0
2018-Jun-18 06:59N 29°21' W 094°47'0 0.0
2018-Jun-18 06:29N 29°21' W 094°47'0 0.0
2018-Jun-18 05:59N 29°21' W 094°47'0 0.0
2018-Jun-18 05:29N 29°21' W 094°47'0 0.1
2018-Jun-18 04:59N 29°21' W 094°47'0 0.2
2018-Jun-18 04:29N 29°21' W 094°47'0 0.2
2018-Jun-18 03:59N 29°21' W 094°47'0 0.1
2018-Jun-18 03:29N 29°21' W 094°47'0 0.1
2018-Jun-18 02:59N 29°21' W 094°47'0 0.0
2018-Jun-18 02:29N 29°21' W 094°47'0 0.0
2018-Jun-18 01:59N 29°21' W 094°47'0 0.0
2018-Jun-18 01:29N 29°21' W 094°47'0 0.0
2018-Jun-18 00:59N 29°21' W 094°47'0 0.0
2018-Jun-18 00:29N 29°21' W 094°47'0 0.0
2018-Jun-17 23:59N 29°21' W 094°47'0 0.0
2018-Jun-17 23:29N 29°21' W 094°47'0 0.0
2018-Jun-17 22:59N 29°21' W 094°47'0 0.0
2018-Jun-17 22:29N 29°21' W 094°47'0 0.0
2018-Jun-17 21:59N 29°21' W 094°47'0 0.0
2018-Jun-17 21:29N 29°21' W 094°47'0 0.0
2018-Jun-17 20:59N 29°21' W 094°47'0 0.0
2018-Jun-17 20:29N 29°21' W 094°47'0 0.0
2018-Jun-17 19:59N 29°21' W 094°47'0 0.0
2018-Jun-17 19:26N 29°21' W 094°47'0 0.0
2018-Jun-17 18:59N 29°21' W 094°47'0 0.0
2018-Jun-17 18:29N 29°21' W 094°47'0 0.0
2018-Jun-17 17:59N 29°21' W 094°47'0 0.0
2018-Jun-17 17:29N 29°21' W 094°47'0 0.0
2018-Jun-17 16:59N 29°21' W 094°47'0 0.0
2018-Jun-17 16:29N 29°21' W 094°47'0 0.0
2018-Jun-17 15:58N 29°21' W 094°47'0 0.0
2018-Jun-17 15:28N 29°21' W 094°47'0 0.0
2018-Jun-17 14:55N 29°21' W 094°47'0 0.0
2018-Jun-17 14:28N 29°21' W 094°47'0 0.0
2018-Jun-17 13:52N 29°21' W 094°47'0 0.0
2018-Jun-17 13:28N 29°21' W 094°47'13 2.6
2018-Jun-17 08:31N 29°33' W 094°54'011.5
2018-Jun-17 08:30N 29°33' W 094°54'510.2
2018-Jun-17 08:00N 29°37' W 094°57'5 9.9
2018-Jun-17 07:28N 29°42' W 094°60'1 0.0
2018-Jun-16 09:11N 29°42' W 095°01'210.6
2018-Jun-16 08:59N 29°41' W 094°59'511.3
2018-Jun-16 08:30N 29°36' W 094°57'611.8
2018-Jun-16 07:59N 29°31' W 094°53'511.2
2018-Jun-16 07:30N 29°26' W 094°50'510.5
2018-Jun-16 07:00N 29°21' W 094°47'510.3
2018-Jun-16 06:30N 29°20' W 094°42'611.2
2018-Jun-16 05:58N 29°18' W 094°35'3 6.9
2018-Jun-16 05:28N 29°16' W 094°32'  
2018-Jun-10 21:46N 19°11' W 095°41'310.0
2018-Jun-10 21:30N 19°12' W 095°43'510.0
2018-Jun-10 21:00N 19°12' W 095°49'610.3
2018-Jun-10 20:23N 19°12' W 095°55'410.5
2018-Jun-10 20:00N 19°11' W 095°60'5 9.9
2018-Jun-10 19:30N 19°12' W 096°05'3 6.4
2018-Jun-10 18:58N 19°13' W 096°08'0 0.0
2018-Jun-10 18:25N 19°13' W 096°08'0 0.0
2018-Jun-10 17:58N 19°13' W 096°08'0 0.0
2018-Jun-10 17:22N 19°13' W 096°08'0 0.0
2018-Jun-10 16:58N 19°13' W 096°08'0 0.0
2018-Jun-10 16:28N 19°13' W 096°08'0 0.0
2018-Jun-10 15:58N 19°13' W 096°08'0 0.0
2018-Jun-10 15:28N 19°13' W 096°08'0 0.0
2018-Jun-10 14:58N 19°13' W 096°08'0 0.0
2018-Jun-10 13:58N 19°13' W 096°08'0 0.0
2018-Jun-10 13:28N 19°13' W 096°08'0 0.0
2018-Jun-10 12:58N 19°13' W 096°08'0 0.0
2018-Jun-10 12:28N 19°13' W 096°08'0 0.0
2018-Jun-10 11:58N 19°13' W 096°08'0 0.0
2018-Jun-10 11:28N 19°13' W 096°08'0 0.0
2018-Jun-10 10:58N 19°13' W 096°08'0 0.0
2018-Jun-10 10:28N 19°13' W 096°08'0 0.0
2018-Jun-10 09:52N 19°13' W 096°08'0 0.0
2018-Jun-10 09:28N 19°13' W 096°08'0 0.0
2018-Jun-10 08:58N 19°13' W 096°08'0 0.0
2018-Jun-10 08:10N 19°13' W 096°08'0 0.0
2018-Jun-10 07:58N 19°13' W 096°08'0 0.0
2018-Jun-10 07:28N 19°13' W 096°08'0 0.0
2018-Jun-10 06:58N 19°13' W 096°08'0 0.0
2018-Jun-10 06:28N 19°13' W 096°08'0 0.0
2018-Jun-10 05:58N 19°13' W 096°08'0 0.0
2018-Jun-10 05:28N 19°13' W 096°08'0 0.0
2018-Jun-10 04:52N 19°13' W 096°08'0 0.0
2018-Jun-10 04:28N 19°13' W 096°08'0 0.0
2018-Jun-10 03:52N 19°13' W 096°08'0 0.0
2018-Jun-10 03:22N 19°13' W 096°08'0 0.0
2018-Jun-10 02:58N 19°13' W 096°08'0 0.0
2018-Jun-10 02:19N 19°13' W 096°08'0 0.0
2018-Jun-10 01:55N 19°13' W 096°08'0 0.0
2018-Jun-10 01:28N 19°13' W 096°08'0 0.0
2018-Jun-10 00:55N 19°13' W 096°08'0 0.0
2018-Jun-10 00:28N 19°13' W 096°08'0 0.0
2018-Jun-09 23:58N 19°13' W 096°08'0 0.0
2018-Jun-09 23:28N 19°13' W 096°08'0 0.0
2018-Jun-09 22:55N 19°13' W 096°08'0 0.0
2018-Jun-09 22:28N 19°13' W 096°08'0 0.0
2018-Jun-09 21:58N 19°13' W 096°08'0 0.0
2018-Jun-09 21:28N 19°13' W 096°08'0 0.0
2018-Jun-09 20:58N 19°13' W 096°08'0 0.0
2018-Jun-09 20:28N 19°13' W 096°08'0 0.0
2018-Jun-09 19:58N 19°13' W 096°08'0 0.0
2018-Jun-09 19:28N 19°13' W 096°08'0 0.0
2018-Jun-09 18:52N 19°13' W 096°08'0 0.0
2018-Jun-09 18:28N 19°13' W 096°08'0 0.0
2018-Jun-09 17:58N 19°13' W 096°08'0 0.0
2018-Jun-09 17:28N 19°13' W 096°08'0 0.0
2018-Jun-09 16:58N 19°13' W 096°08'0 0.0
2018-Jun-09 16:28N 19°13' W 096°08'0 0.0
2018-Jun-09 15:58N 19°13' W 096°08'0 0.0
2018-Jun-09 14:58N 19°13' W 096°08'0 0.0
2018-Jun-09 14:22N 19°13' W 096°08'0 0.0
2018-Jun-09 13:58N 19°13' W 096°08'0 0.0
2018-Jun-09 13:28N 19°13' W 096°08'0 0.0
2018-Jun-09 12:58N 19°13' W 096°08'0 0.0
2018-Jun-09 12:28N 19°13' W 096°08'0 0.1
2018-Jun-09 11:58N 19°13' W 096°08'0 0.0
2018-Jun-09 11:28N 19°13' W 096°08'0 0.0
2018-Jun-09 10:58N 19°13' W 096°08'0 0.0
2018-Jun-09 10:28N 19°13' W 096°08'0 0.0
2018-Jun-09 09:58N 19°13' W 096°08'0 0.0
2018-Jun-09 09:28N 19°13' W 096°08'0 0.0
2018-Jun-09 08:58N 19°13' W 096°08'0 0.0
2018-Jun-09 08:28N 19°13' W 096°08'0 0.0
2018-Jun-09 07:58N 19°13' W 096°08'1 2.1
2018-Jun-09 07:30N 19°12' W 096°07'4 7.8
2018-Jun-09 07:00N 19°12' W 096°03'4 7.5
2018-Jun-09 06:30N 19°14' W 096°00'510.7
2018-Jun-09 06:00N 19°19' W 096°00'510.6
2018-Jun-09 05:30N 19°25' W 095°60'611.4
2018-Jun-09 05:00N 19°29' W 095°57'  

Dump ship's entire track history